createdAt,value
2023-09-07T00:00:50.358Z,100.00
2023-09-07T00:03:42.724Z,100.00
2023-09-07T00:06:13.331Z,100.00
2023-09-07T00:08:43.196Z,100.00
2023-09-07T00:11:14.985Z,100.00
2023-09-07T00:13:44.623Z,100.00
2023-09-07T00:16:14.814Z,100.00
2023-09-07T00:18:44.498Z,100.00
2023-09-07T00:21:14.545Z,100.00
2023-09-07T00:23:44.307Z,100.00
2023-09-07T00:26:15.860Z,100.00
2023-09-07T00:28:45.822Z,100.00
2023-09-07T00:31:16.064Z,100.00
2023-09-07T00:33:44.772Z,100.00
2023-09-07T00:36:14.906Z,100.00
2023-09-07T00:38:44.630Z,100.00
2023-09-07T00:41:16.202Z,100.00
2023-09-07T00:43:45.967Z,100.00
2023-09-07T00:46:16.092Z,100.00
2023-09-07T00:48:46.081Z,100.00
2023-09-07T00:51:15.974Z,100.00
2023-09-07T00:53:45.880Z,100.00
2023-09-07T00:56:18.541Z,100.00
2023-09-07T00:58:50.617Z,100.00
2023-09-07T01:01:20.800Z,100.00
2023-09-07T01:03:50.858Z,100.00
2023-09-07T01:06:23.592Z,100.00
2023-09-07T01:08:54.296Z,100.00
2023-09-07T01:11:26.034Z,100.00
2023-09-07T01:13:56.733Z,100.00
2023-09-07T01:16:27.178Z,100.00
2023-09-07T01:18:56.889Z,100.00
2023-09-07T01:21:26.857Z,100.00
2023-09-07T01:23:58.622Z,100.00
2023-09-07T01:26:28.731Z,100.00
2023-09-07T01:28:58.909Z,100.00
2023-09-07T01:31:29.045Z,100.00
2023-09-07T01:33:58.989Z,100.00
2023-09-07T01:36:29.125Z,100.00
2023-09-07T01:39:00.282Z,100.00
2023-09-07T01:41:30.629Z,100.00
2023-09-07T01:44:00.529Z,100.00
2023-09-07T01:46:30.629Z,100.00
2023-09-07T01:49:00.349Z,100.00
2023-09-07T01:51:30.569Z,100.00
2023-09-07T01:54:01.739Z,100.00
2023-09-07T01:56:32.095Z,100.00
2023-09-07T01:59:01.874Z,100.00
2023-09-07T02:01:33.075Z,100.00
2023-09-07T02:04:02.707Z,100.00
2023-09-07T02:06:32.594Z,100.00
2023-09-07T02:09:05.787Z,100.00
2023-09-07T02:11:35.937Z,100.00
2023-09-07T02:14:05.757Z,100.00
2023-09-07T02:16:35.978Z,100.00
2023-09-07T02:19:06.483Z,100.00
2023-09-07T02:21:36.659Z,100.00
2023-09-07T02:24:08.392Z,100.00
2023-09-07T02:26:45.180Z,100.00
2023-09-07T02:29:14.860Z,100.00
2023-09-07T02:31:45.075Z,100.00
2023-09-07T02:34:14.806Z,100.00
2023-09-07T02:36:44.861Z,100.00
2023-09-07T02:39:16.006Z,100.00
2023-09-07T02:41:46.913Z,100.00
2023-09-07T02:44:16.793Z,100.00
2023-09-07T02:46:46.804Z,100.00
2023-09-07T02:49:16.673Z,100.00
2023-09-07T02:51:46.792Z,100.00
2023-09-07T02:54:17.847Z,100.00
2023-09-07T02:56:48.026Z,100.00
2023-09-07T02:59:17.899Z,100.00
2023-09-07T03:01:47.995Z,100.00
2023-09-07T03:04:18.721Z,100.00
2023-09-07T03:06:48.878Z,100.00
2023-09-07T03:09:20.131Z,100.00
2023-09-07T03:11:50.366Z,100.00
2023-09-07T03:14:20.326Z,100.00
2023-09-07T03:16:51.726Z,100.00
2023-09-07T03:19:21.810Z,100.00
2023-09-07T03:21:51.819Z,100.00
2023-09-07T03:24:22.996Z,100.00
2023-09-07T03:26:53.108Z,100.00
2023-09-07T03:29:22.923Z,100.00
2023-09-07T03:31:53.529Z,100.00
2023-09-07T03:34:23.517Z,100.00
2023-09-07T03:36:53.767Z,100.00
2023-09-07T03:39:25.001Z,100.00
2023-09-07T03:41:55.090Z,100.00
2023-09-07T03:44:26.426Z,100.00
2023-09-07T03:46:56.931Z,100.00
2023-09-07T03:49:26.955Z,100.00
2023-09-07T03:51:57.343Z,100.00
2023-09-07T03:54:28.920Z,100.00
2023-09-07T03:56:58.862Z,100.00
2023-09-07T03:59:30.161Z,100.00
2023-09-07T04:02:00.409Z,100.00
2023-09-07T04:04:30.639Z,100.00
2023-09-07T04:07:01.053Z,100.00
2023-09-07T04:09:32.425Z,100.00
2023-09-07T04:12:05.140Z,100.00
2023-09-07T04:14:35.044Z,100.00
2023-09-07T04:17:05.547Z,100.00
2023-09-07T04:19:35.679Z,100.00
2023-09-07T04:22:05.965Z,100.00
2023-09-07T04:24:37.614Z,100.00
2023-09-07T04:27:09.568Z,100.00
2023-09-07T04:29:40.038Z,100.00
2023-09-07T04:32:10.429Z,100.00
2023-09-07T04:34:40.201Z,100.00
2023-09-07T04:37:13.097Z,100.00
2023-09-07T04:39:44.921Z,100.00
2023-09-07T04:42:15.021Z,100.00
2023-09-07T04:44:44.873Z,100.00
2023-09-07T04:47:15.323Z,100.00
2023-09-07T04:49:51.295Z,100.00
2023-09-07T04:52:23.650Z,100.00
2023-09-07T04:54:54.837Z,100.00
2023-09-07T04:57:24.889Z,100.00
2023-09-07T04:59:54.814Z,100.00
2023-09-07T05:02:25.158Z,100.00
2023-09-07T05:04:55.048Z,100.00
2023-09-07T05:07:25.085Z,100.00
2023-09-07T05:09:56.780Z,100.00
2023-09-07T05:12:26.876Z,100.00
2023-09-07T05:14:56.633Z,100.00
2023-09-07T05:17:26.928Z,100.00
2023-09-07T05:19:56.963Z,100.00
2023-09-07T05:22:27.880Z,100.00
2023-09-07T05:25:02.276Z,100.00
2023-09-07T05:27:33.334Z,100.00
2023-09-07T05:30:03.208Z,100.00
2023-09-07T05:32:33.535Z,100.00
2023-09-07T05:35:04.285Z,100.00
2023-09-07T05:37:34.449Z,100.00
2023-09-07T05:40:06.342Z,100.00
2023-09-07T05:42:36.617Z,100.00
2023-09-07T05:45:06.803Z,100.00
2023-09-07T05:47:37.062Z,100.00
2023-09-07T05:50:07.548Z,100.00
2023-09-07T05:52:37.956Z,100.00
2023-09-07T05:55:10.115Z,100.00
2023-09-07T05:57:40.412Z,100.00
2023-09-07T06:00:11.049Z,100.00
2023-09-07T06:02:46.328Z,100.00
2023-09-07T06:05:16.846Z,100.00
2023-09-07T06:07:47.018Z,100.00
2023-09-07T06:10:20.745Z,100.00
2023-09-07T06:12:52.033Z,100.00
2023-09-07T06:15:22.764Z,100.00
2023-09-07T06:17:53.078Z,100.00
2023-09-07T06:20:23.053Z,100.00
2023-09-07T06:22:53.362Z,100.00
2023-09-07T06:25:24.892Z,100.00
2023-09-07T06:27:55.791Z,100.00
2023-09-07T06:30:25.430Z,100.00
2023-09-07T06:32:55.920Z,100.00
2023-09-07T06:35:26.289Z,100.00
2023-09-07T06:37:57.408Z,100.00
2023-09-07T06:40:31.370Z,100.00
2023-09-07T06:43:06.571Z,100.00
2023-09-07T06:45:37.309Z,100.00
2023-09-07T06:48:08.406Z,100.00
2023-09-07T06:50:38.606Z,100.00
2023-09-07T06:53:09.954Z,100.00
2023-09-07T06:55:42.641Z,100.00
2023-09-07T06:58:12.780Z,100.00
2023-09-07T07:00:42.762Z,100.00
2023-09-07T07:03:13.038Z,98.45
2023-09-07T07:05:43.800Z,97.84
2023-09-07T07:08:14.020Z,97.35
2023-09-07T07:10:45.175Z,96.26
2023-09-07T07:13:15.676Z,95.96
2023-09-07T07:15:45.405Z,93.56
2023-09-07T07:18:16.183Z,93.74
2023-09-07T07:20:46.762Z,94.42
2023-09-07T07:23:16.910Z,94.05
2023-09-07T07:25:49.211Z,92.42
2023-09-07T07:28:19.364Z,92.80
2023-09-07T07:30:49.582Z,92.20
2023-09-07T07:33:19.859Z,94.28
2023-09-07T07:35:50.252Z,91.79
2023-09-07T07:38:21.103Z,91.42
2023-09-07T07:40:54.453Z,90.90
2023-09-07T07:43:24.846Z,92.25
2023-09-07T07:45:56.674Z,92.61
2023-09-07T07:48:27.515Z,92.75
2023-09-07T07:50:57.338Z,89.76
2023-09-07T07:53:27.681Z,87.98
2023-09-07T07:56:00.043Z,86.00
2023-09-07T07:58:30.423Z,84.46
2023-09-07T08:01:00.381Z,82.18
2023-09-07T08:03:34.856Z,82.33
2023-09-07T08:06:05.436Z,79.89
2023-09-07T08:08:35.816Z,80.02
2023-09-07T08:11:07.401Z,79.64
2023-09-07T08:13:39.351Z,78.51
2023-09-07T08:16:12.555Z,78.45
2023-09-07T08:18:44.537Z,79.64
2023-09-07T08:21:17.058Z,79.59
2023-09-07T08:23:47.860Z,79.44
2023-09-07T08:26:21.694Z,80.00
2023-09-07T08:28:52.126Z,80.09
2023-09-07T08:31:23.715Z,79.77
2023-09-07T08:33:56.654Z,78.98
2023-09-07T08:36:29.638Z,75.48
2023-09-07T08:39:01.387Z,74.78
2023-09-07T08:41:40.577Z,74.23
2023-09-07T08:44:20.765Z,72.25
2023-09-07T08:46:51.991Z,72.87
2023-09-07T08:49:24.567Z,73.56
2023-09-07T08:51:54.455Z,72.43
2023-09-07T08:54:25.225Z,72.05
2023-09-07T08:56:58.529Z,70.72
2023-09-07T08:59:28.665Z,70.45
2023-09-07T09:02:01.605Z,69.49
2023-09-07T09:04:32.106Z,69.96
2023-09-07T09:07:04.554Z,70.66
2023-09-07T09:09:34.761Z,71.35
2023-09-07T09:12:12.917Z,70.00
2023-09-07T09:14:44.995Z,71.15
2023-09-07T09:17:15.527Z,72.04
2023-09-07T09:19:45.775Z,71.64
2023-09-07T09:22:15.568Z,71.50
2023-09-07T09:24:45.783Z,72.45
2023-09-07T09:27:17.028Z,72.57
2023-09-07T09:29:47.209Z,74.15
2023-09-07T09:32:18.727Z,74.58
2023-09-07T09:34:49.489Z,77.58
2023-09-07T09:37:20.607Z,77.48
2023-09-07T09:39:52.494Z,76.18
2023-09-07T09:42:24.080Z,74.44
2023-09-07T09:44:55.473Z,74.57
2023-09-07T09:47:25.725Z,77.16
2023-09-07T09:49:57.084Z,78.19
2023-09-07T09:52:28.161Z,78.59
2023-09-07T09:54:58.377Z,78.52
2023-09-07T09:57:31.613Z,79.50
2023-09-07T10:00:05.031Z,77.49
2023-09-07T10:02:42.904Z,76.91
2023-09-07T10:05:14.973Z,79.17
2023-09-07T10:07:45.285Z,79.57
2023-09-07T10:10:16.384Z,79.61
2023-09-07T10:12:48.447Z,77.84
2023-09-07T10:15:25.233Z,79.08
2023-09-07T10:18:05.547Z,78.00
2023-09-07T10:20:50.364Z,80.76
2023-09-07T10:23:20.116Z,78.76
2023-09-07T10:25:50.977Z,77.07
2023-09-07T10:28:23.108Z,77.20
2023-09-07T10:31:06.202Z,78.34
2023-09-07T10:33:36.930Z,79.41
2023-09-07T10:36:08.079Z,79.15
2023-09-07T10:38:39.567Z,78.89
2023-09-07T10:41:09.804Z,78.75
2023-09-07T10:43:49.247Z,78.37
2023-09-07T10:46:21.403Z,78.64
2023-09-07T10:48:52.189Z,77.97
2023-09-07T10:51:23.098Z,77.78
2023-09-07T10:53:52.933Z,79.78
2023-09-07T10:56:27.074Z,80.73
2023-09-07T10:59:00.552Z,81.10
2023-09-07T11:01:30.763Z,82.23
2023-09-07T11:04:00.702Z,82.44
2023-09-07T11:06:35.054Z,83.30
2023-09-07T11:09:06.256Z,82.10
2023-09-07T11:11:36.385Z,83.15
2023-09-07T11:14:08.089Z,83.25
2023-09-07T11:16:38.648Z,81.45
2023-09-07T11:19:09.638Z,80.66
2023-09-07T11:21:39.899Z,82.03
2023-09-07T11:24:11.066Z,82.81
2023-09-07T11:26:44.765Z,84.61
2023-09-07T11:29:17.933Z,84.99
2023-09-07T11:31:48.711Z,85.97
2023-09-07T11:34:18.522Z,82.62
2023-09-07T11:36:50.755Z,82.98
2023-09-07T11:39:21.026Z,82.27
2023-09-07T11:41:51.205Z,80.16
2023-09-07T11:44:22.495Z,82.32
2023-09-07T11:46:53.500Z,82.09
2023-09-07T11:49:23.888Z,82.24
2023-09-07T11:51:54.093Z,82.22
2023-09-07T11:54:24.470Z,81.96
2023-09-07T11:56:54.528Z,81.52
2023-09-07T11:59:25.756Z,81.80
2023-09-07T12:01:55.978Z,81.60
2023-09-07T12:04:25.886Z,81.50
2023-09-07T12:06:56.337Z,80.68
2023-09-07T12:09:26.248Z,81.28
2023-09-07T12:11:56.501Z,80.78
2023-09-07T12:14:27.728Z,80.85
2023-09-07T12:16:57.925Z,80.90
2023-09-07T12:19:27.792Z,80.98
2023-09-07T12:21:57.848Z,81.54
2023-09-07T12:24:27.739Z,81.26
2023-09-07T12:26:57.835Z,81.10
2023-09-07T12:29:29.332Z,80.45
2023-09-07T12:31:59.741Z,79.94
2023-09-07T12:34:32.336Z,79.84
2023-09-07T12:37:05.856Z,79.49
2023-09-07T12:39:35.954Z,79.52
2023-09-07T12:42:06.195Z,80.49
2023-09-07T12:44:37.418Z,80.59
2023-09-07T12:47:07.649Z,80.65
2023-09-07T12:49:37.605Z,80.40
2023-09-07T12:52:10.317Z,79.77
2023-09-07T12:54:40.552Z,80.80
2023-09-07T12:57:10.811Z,80.41
2023-09-07T12:59:42.042Z,78.31
2023-09-07T13:02:12.298Z,75.97
2023-09-07T13:04:42.140Z,76.54
2023-09-07T13:07:12.124Z,77.65
2023-09-07T13:09:41.906Z,76.10
2023-09-07T13:12:12.006Z,73.61
2023-09-07T13:14:43.419Z,70.37
2023-09-07T13:17:15.362Z,72.73
2023-09-07T13:19:45.323Z,75.30
2023-09-07T13:22:15.433Z,78.62
2023-09-07T13:24:45.192Z,79.25
2023-09-07T13:27:15.605Z,79.61
2023-09-07T13:29:46.929Z,79.28
2023-09-07T13:32:16.361Z,79.75
2023-09-07T13:34:46.145Z,78.54
2023-09-07T13:37:16.531Z,78.34
2023-09-07T13:39:46.366Z,78.70
2023-09-07T13:42:16.422Z,78.58
2023-09-07T13:44:48.904Z,78.15
2023-09-07T13:47:19.335Z,77.50
2023-09-07T13:49:49.249Z,77.15
2023-09-07T13:52:20.428Z,76.20
2023-09-07T13:54:50.108Z,76.46
2023-09-07T13:57:20.443Z,77.85
2023-09-07T13:59:52.685Z,77.39
2023-09-07T14:02:22.769Z,78.65
2023-09-07T14:04:52.697Z,78.21
2023-09-07T14:07:27.520Z,77.75
2023-09-07T14:10:00.068Z,79.34
2023-09-07T14:12:34.524Z,79.52
2023-09-07T14:15:10.709Z,80.11
2023-09-07T14:17:42.901Z,79.24
2023-09-07T14:20:15.991Z,79.97
2023-09-07T14:22:47.961Z,80.88
2023-09-07T14:25:20.497Z,79.91
2023-09-07T14:27:51.888Z,80.25
2023-09-07T14:30:23.538Z,80.76
2023-09-07T14:32:57.775Z,80.73
2023-09-07T14:35:32.285Z,80.12
2023-09-07T14:38:08.816Z,80.05
2023-09-07T14:40:42.636Z,80.31
2023-09-07T14:43:20.447Z,80.67
2023-09-07T14:45:51.994Z,80.16
2023-09-07T14:48:26.740Z,79.65
2023-09-07T14:50:57.116Z,80.20
2023-09-07T14:53:27.550Z,79.98
2023-09-07T14:55:59.096Z,79.72
2023-09-07T14:58:29.279Z,78.85
2023-09-07T15:01:00.893Z,78.80
2023-09-07T15:03:31.343Z,79.91
2023-09-07T15:06:01.884Z,80.51
2023-09-07T15:08:33.030Z,79.74
2023-09-07T15:11:03.234Z,80.39
2023-09-07T15:13:33.614Z,80.78
2023-09-07T15:16:05.993Z,80.98
2023-09-07T15:18:36.760Z,80.61
2023-09-07T15:21:06.767Z,81.70
2023-09-07T15:23:37.932Z,82.13
2023-09-07T15:26:07.892Z,81.17
2023-09-07T15:28:43.558Z,81.75
2023-09-07T15:31:17.516Z,82.72
2023-09-07T15:33:53.110Z,82.02
2023-09-07T15:36:27.076Z,81.86
2023-09-07T15:38:59.121Z,82.11
2023-09-07T15:41:29.341Z,82.36
2023-09-07T15:44:00.272Z,83.41
2023-09-07T15:46:34.024Z,82.73
2023-09-07T15:49:05.419Z,82.93
2023-09-07T15:51:35.435Z,83.38
2023-09-07T15:54:06.381Z,84.12
2023-09-07T15:56:36.860Z,84.62
2023-09-07T15:59:09.287Z,84.51
2023-09-07T16:01:40.842Z,83.90
2023-09-07T16:04:13.279Z,83.67
2023-09-07T16:06:43.746Z,84.87
2023-09-07T16:09:13.895Z,84.71
2023-09-07T16:11:44.512Z,84.79
2023-09-07T16:14:19.395Z,85.57
2023-09-07T16:16:51.439Z,86.45
2023-09-07T16:19:21.825Z,86.46
2023-09-07T16:21:51.687Z,87.30
2023-09-07T16:24:21.899Z,87.71
2023-09-07T16:26:51.922Z,88.13
2023-09-07T16:29:22.717Z,88.78
2023-09-07T16:31:54.126Z,89.40
2023-09-07T16:34:24.388Z,90.37
2023-09-07T16:36:55.116Z,90.41
2023-09-07T16:39:25.828Z,91.19
2023-09-07T16:41:55.728Z,91.47
2023-09-07T16:44:25.878Z,92.40
2023-09-07T16:46:57.137Z,93.02
2023-09-07T16:49:27.319Z,94.85
2023-09-07T16:51:57.064Z,95.08
2023-09-07T16:54:27.093Z,95.80
2023-09-07T16:56:58.863Z,96.19
2023-09-07T16:59:55.385Z,96.38
2023-09-07T17:02:21.649Z,97.42
2023-09-07T17:04:53.008Z,98.12
2023-09-07T17:07:24.411Z,98.77
2023-09-07T17:09:56.082Z,99.26
2023-09-07T17:12:27.842Z,100.00
2023-09-07T17:15:00.886Z,100.00
2023-09-07T17:17:32.888Z,100.00
2023-09-07T17:20:09.395Z,100.00
2023-09-07T17:22:39.047Z,100.00
2023-09-07T17:25:09.594Z,100.00
2023-09-07T17:27:39.292Z,100.00
2023-09-07T17:30:12.285Z,100.00
2023-09-07T17:32:44.033Z,100.00
2023-09-07T17:35:14.815Z,100.00
2023-09-07T17:37:44.553Z,100.00
2023-09-07T17:40:15.354Z,100.00
2023-09-07T17:42:45.475Z,100.00
2023-09-07T17:45:16.432Z,100.00
2023-09-07T17:47:48.198Z,100.00
2023-09-07T17:50:19.034Z,100.00
2023-09-07T17:52:48.843Z,100.00
2023-09-07T17:55:19.159Z,100.00
2023-09-07T17:57:49.309Z,100.00
2023-09-07T18:00:20.332Z,100.00
2023-09-07T18:02:53.011Z,100.00
2023-09-07T18:05:23.396Z,100.00
2023-09-07T18:07:54.964Z,100.00
2023-09-07T18:11:00.500Z,100.00
2023-09-07T18:13:43.418Z,100.00
2023-09-07T18:16:17.313Z,100.00
2023-09-07T18:18:49.008Z,100.00
2023-09-07T18:21:19.965Z,100.00
2023-09-07T18:23:53.885Z,100.00
2023-09-07T18:26:26.440Z,100.00
2023-09-07T18:28:59.110Z,100.00
2023-09-07T18:31:29.699Z,100.00
2023-09-07T18:34:02.685Z,100.00
2023-09-07T18:36:34.747Z,100.00
2023-09-07T18:39:05.004Z,100.00
2023-09-07T18:41:35.488Z,100.00
2023-09-07T18:44:05.239Z,100.00
2023-09-07T18:46:35.651Z,100.00
2023-09-07T18:49:06.956Z,100.00
2023-09-07T18:51:37.135Z,100.00
2023-09-07T18:54:06.909Z,100.00
2023-09-07T18:56:36.918Z,100.00
2023-09-07T18:59:08.673Z,100.00
2023-09-07T19:01:39.395Z,100.00
2023-09-07T19:04:14.297Z,100.00
2023-09-07T19:06:44.414Z,100.00
2023-09-07T19:09:14.340Z,100.00
2023-09-07T19:11:44.683Z,100.00
2023-09-07T19:14:14.320Z,100.00
2023-09-07T19:16:44.698Z,100.00
2023-09-07T19:19:28.463Z,100.00
2023-09-07T19:22:05.810Z,100.00
2023-09-07T19:24:35.599Z,100.00
2023-09-07T19:27:05.688Z,100.00
2023-09-07T19:29:35.552Z,100.00
2023-09-07T19:32:05.823Z,100.00
2023-09-07T19:34:37.175Z,100.00
2023-09-07T19:37:07.238Z,100.00
2023-09-07T19:39:38.184Z,100.00
2023-09-07T19:42:09.346Z,100.00
2023-09-07T19:44:39.541Z,100.00
2023-09-07T19:47:11.098Z,100.00
2023-09-07T19:49:43.081Z,100.00
2023-09-07T19:52:13.250Z,100.00
2023-09-07T19:54:43.226Z,100.00
2023-09-07T19:57:13.349Z,100.00
2023-09-07T19:59:43.377Z,100.00
2023-09-07T20:02:14.398Z,100.00
2023-09-07T20:04:45.730Z,100.00
2023-09-07T20:07:22.763Z,100.00
2023-09-07T20:09:56.894Z,100.00
2023-09-07T20:12:28.825Z,100.00
2023-09-07T20:15:01.011Z,100.00
2023-09-07T20:17:31.671Z,100.00
2023-09-07T20:20:04.111Z,100.00
2023-09-07T20:22:37.616Z,100.00
2023-09-07T20:25:07.880Z,100.00
2023-09-07T20:27:37.945Z,100.00
2023-09-07T20:30:08.457Z,100.00
2023-09-07T20:32:38.670Z,100.00
2023-09-07T20:35:10.905Z,100.00
2023-09-07T20:37:41.143Z,100.00
2023-09-07T20:40:13.813Z,100.00
2023-09-07T20:42:45.133Z,100.00
2023-09-07T20:45:15.074Z,100.00
2023-09-07T20:47:45.505Z,100.00
2023-09-07T20:50:17.198Z,100.00
2023-09-07T20:52:47.360Z,100.00
2023-09-07T20:55:17.256Z,100.00
2023-09-07T20:57:50.565Z,100.00
2023-09-07T21:00:20.515Z,100.00
2023-09-07T21:02:50.733Z,100.00
2023-09-07T21:05:22.379Z,100.00
2023-09-07T21:07:52.430Z,100.00
2023-09-07T21:10:23.070Z,100.00
2023-09-07T21:12:53.331Z,100.00
2023-09-07T21:19:30.192Z,100.00
2023-09-07T21:22:01.721Z,100.00
2023-09-07T21:24:32.228Z,100.00
2023-09-07T21:27:02.869Z,100.00
2023-09-07T21:29:32.949Z,100.00
2023-09-07T21:32:03.150Z,100.00
2023-09-07T21:34:33.564Z,100.00
2023-09-07T21:37:05.401Z,100.00
2023-09-07T21:39:36.525Z,100.00
2023-09-07T21:42:07.198Z,100.00
2023-09-07T21:44:37.549Z,100.00
2023-09-07T21:47:08.728Z,100.00
2023-09-07T21:49:38.584Z,100.00
2023-09-07T21:52:10.150Z,100.00
2023-09-07T21:54:40.041Z,100.00
2023-09-07T21:57:10.231Z,100.00
2023-09-07T21:59:40.042Z,100.00
2023-09-07T22:02:10.226Z,100.00
2023-09-07T22:04:40.169Z,100.00
2023-09-07T22:07:11.738Z,100.00
2023-09-07T22:09:41.719Z,100.00
2023-09-07T22:12:11.840Z,100.00
2023-09-07T22:14:41.649Z,100.00
2023-09-07T22:17:12.910Z,100.00
2023-09-07T22:19:42.790Z,100.00
2023-09-07T22:22:16.845Z,100.00
2023-09-07T22:24:46.583Z,100.00
2023-09-07T22:27:16.710Z,100.00
2023-09-07T22:29:46.486Z,100.00
2023-09-07T22:32:16.715Z,100.00
2023-09-07T22:34:48.202Z,100.00
2023-09-07T22:37:20.484Z,100.00
2023-09-07T22:39:51.669Z,100.00
2023-09-07T22:42:21.721Z,100.00
2023-09-07T22:44:51.487Z,100.00
2023-09-07T22:47:21.910Z,100.00
2023-09-07T22:49:51.701Z,100.00
2023-09-07T22:52:23.584Z,100.00
2023-09-07T22:54:53.308Z,100.00
2023-09-07T22:57:23.786Z,100.00
2023-09-07T22:59:54.139Z,100.00
2023-09-07T23:02:24.350Z,100.00
2023-09-07T23:04:55.326Z,100.00
2023-09-07T23:07:26.960Z,100.00
2023-09-07T23:09:56.789Z,100.00
2023-09-07T23:12:27.829Z,100.00
2023-09-07T23:14:58.761Z,100.00
2023-09-07T23:17:29.156Z,100.00
2023-09-07T23:19:59.082Z,100.00
2023-09-07T23:22:31.661Z,100.00
2023-09-07T23:25:01.389Z,100.00
2023-09-07T23:27:31.736Z,100.00
2023-09-07T23:30:02.890Z,100.00
2023-09-07T23:32:36.155Z,100.00
2023-09-07T23:35:06.668Z,100.00
2023-09-07T23:37:39.386Z,100.00
2023-09-07T23:40:10.700Z,100.00
2023-09-07T23:42:41.360Z,100.00
2023-09-07T23:45:11.633Z,100.00
2023-09-07T23:47:42.747Z,100.00
2023-09-07T23:50:12.904Z,100.00
2023-09-07T23:52:44.514Z,100.00
2023-09-07T23:55:14.817Z,100.00
2023-09-07T23:57:45.134Z,100.00
